Time;durP1;ratioP1;P1;durP2;ratioP2;P2;SDS_P1;SDS_P2;PMS_P1;PMS_P2;Temp;Humidity;BMP_temperature;BMP_pressure;BME280_temperature;BME280_humidity;BME280_pressure;Samples;Min_cycle;Max_cycle;Signal;HPM_P1;HPM_P2
2023/06/14 00:03:55;;;;;;;7.13;4.33;;;;;;;7.29;100.00;96477.84;10449874;28;20238;-75
2023/06/14 00:08:56;;;;;;;6.97;4.57;;;;;;;7.24;100.00;96471.41;10449991;28;20192;-75
2023/06/14 00:13:56;;;;;;;14.73;4.90;;;;;;;7.06;100.00;96473.91;10457024;28;20203;-75
2023/06/14 00:18:57;;;;;;;7.03;4.33;;;;;;;7.01;100.00;96478.72;10455994;28;20192;-75
2023/06/14 00:23:58;;;;;;;8.23;4.80;;;;;;;6.95;100.00;96490.53;10456211;28;20272;-75
2023/06/14 00:28:58;;;;;;;6.30;4.63;;;;;;;7.12;100.00;96481.16;10456074;28;20195;-75
2023/06/14 00:34:00;;;;;;;5.80;4.60;;;;;;;6.96;100.00;96476.56;10455683;28;20199;-75
2023/06/14 00:39:00;;;;;;;8.20;5.03;;;;;;;6.84;100.00;96499.31;10456404;28;20226;-75
2023/06/14 00:44:01;;;;;;;5.53;4.13;;;;;;;6.72;100.00;96492.59;10454084;28;20200;-75
2023/06/14 00:49:01;;;;;;;10.53;4.43;;;;;;;6.78;100.00;96499.88;10455818;28;20664;-75
2023/06/14 00:54:02;;;;;;;7.13;4.87;;;;;;;6.49;100.00;96505.88;10454996;28;20223;-75
2023/06/14 00:59:02;;;;;;;11.07;4.83;;;;;;;6.63;100.00;96511.66;10453404;28;20188;-75
2023/06/14 01:04:03;;;;;;;7.83;5.57;;;;;;;6.41;100.00;96511.75;10453250;28;21060;-76
2023/06/14 01:09:27;;;;;;;6.13;5.43;;;;;;;6.42;100.00;96516.03;10453944;28;20191;-76
2023/06/14 01:14:28;;;;;;;7.33;5.13;;;;;;;6.49;100.00;96520.69;10454402;28;20322;-76
2023/06/14 01:19:29;;;;;;;9.33;6.30;;;;;;;6.40;100.00;96520.56;10454482;28;20322;-76
2023/06/14 01:24:31;;;;;;;7.20;5.33;;;;;;;6.36;100.00;96521.75;10453084;28;20555;-75
2023/06/14 01:29:33;;;;;;;12.23;5.57;;;;;;;6.22;100.00;96524.78;10454039;28;20564;-75
2023/06/14 01:34:33;;;;;;;11.67;5.63;;;;;;;5.86;100.00;96513.94;10452472;28;20220;-76
2023/06/14 01:39:33;;;;;;;6.97;5.33;;;;;;;5.87;100.00;96521.63;10435584;28;20207;-76
2023/06/14 01:44:34;;;;;;;12.10;5.87;;;;;;;5.85;100.00;96517.50;10469218;28;20211;-76
2023/06/14 01:49:35;;;;;;;6.97;5.57;;;;;;;5.93;100.00;96519.47;10453440;28;20196;-75
2023/06/14 01:54:37;;;;;;;11.00;5.63;;;;;;;5.97;100.00;96521.69;10452913;28;20212;-76
2023/06/14 01:59:38;;;;;;;9.03;5.73;;;;;;;5.95;100.00;96522.75;10452125;28;20188;-75
2023/06/14 02:04:38;;;;;;;7.13;5.40;;;;;;;5.99;100.00;96524.97;10451061;28;20234;-75
2023/06/14 02:09:39;;;;;;;8.10;6.20;;;;;;;5.94;100.00;96521.94;10451062;28;20203;-77
2023/06/14 02:14:39;;;;;;;9.47;5.90;;;;;;;5.86;100.00;96513.94;10452117;28;20649;-76
2023/06/14 02:19:40;;;;;;;7.00;5.17;;;;;;;5.81;100.00;96518.72;10452439;28;20202;-74
2023/06/14 02:24:41;;;;;;;10.30;5.50;;;;;;;5.83;100.00;96524.63;10451292;28;20199;-74
2023/06/14 02:29:42;;;;;;;5.40;4.90;;;;;;;5.91;100.00;96532.56;10450848;28;20191;-74
2023/06/14 02:34:43;;;;;;;8.90;5.23;;;;;;;5.90;100.00;96529.16;10450039;28;20219;-74
2023/06/14 02:39:43;;;;;;;10.43;5.33;;;;;;;5.83;100.00;96520.22;10450115;28;20302;-74
2023/06/14 02:44:45;;;;;;;6.43;4.90;;;;;;;5.77;100.00;96525.94;10451101;28;20188;-74
2023/06/14 02:49:48;;;;;;;10.70;5.17;;;;;;;5.73;100.00;96516.78;10478071;28;20203;-76
2023/06/14 02:54:49;;;;;;;8.77;5.13;;;;;;;5.76;100.00;96524.31;10490976;28;20215;-76
2023/06/14 02:59:50;;;;;;;7.03;6.00;;;;;;;5.79;100.00;96518.03;10492482;28;20179;-76
2023/06/14 03:04:50;;;;;;;10.20;6.43;;;;;;;5.70;100.00;96523.06;10464166;28;20729;-76
2023/06/14 03:09:53;;;;;;;7.23;6.50;;;;;;;5.64;100.00;96531.38;10445352;28;20542;-76
2023/06/14 03:14:56;;;;;;;10.93;5.67;;;;;;;5.75;100.00;96527.06;10445358;28;20215;-76
2023/06/14 03:19:57;;;;;;;7.17;5.87;;;;;;;5.69;100.00;96542.19;10444822;28;20184;-77
2023/06/14 03:24:59;;;;;;;5.37;4.87;;;;;;;5.82;100.00;96544.59;10445342;28;20199;-76
2023/06/14 03:30:00;;;;;;;5.70;5.07;;;;;;;5.85;100.00;96544.34;10444271;28;20192;-76
2023/06/14 03:35:01;;;;;;;7.10;4.80;;;;;;;5.95;100.00;96559.16;10444178;28;20599;-74
2023/06/14 03:40:05;;;;;;;5.87;5.03;;;;;;;5.72;100.00;96547.13;10443569;28;20216;-74
2023/06/14 03:45:08;;;;;;;8.10;5.17;;;;;;;5.69;100.00;96549.19;10446686;28;20317;-76
2023/06/14 03:50:09;;;;;;;5.97;4.70;;;;;;;5.69;100.00;96552.59;10452587;28;20241;-76
2023/06/14 03:55:10;;;;;;;8.70;5.43;;;;;;;5.70;100.00;96556.03;10452344;28;20215;-76
2023/06/14 04:00:12;;;;;;;7.53;4.87;;;;;;;5.80;100.00;96559.47;10452095;28;20192;-76
2023/06/14 04:05:16;;;;;;;7.63;5.90;;;;;;;5.93;100.00;96558.47;10457004;28;20289;-76
2023/06/14 04:10:20;;;;;;;11.07;6.27;;;;;;;6.10;100.00;96564.84;10456315;28;20587;-76
2023/06/14 04:15:21;;;;;;;7.67;4.70;;;;;;;6.22;100.00;96567.19;10456658;28;20222;-76
2023/06/14 04:20:21;;;;;;;7.53;5.20;;;;;;;6.34;100.00;96565.31;10455772;28;20195;-76
2023/06/14 04:25:23;;;;;;;8.40;5.23;;;;;;;6.52;100.00;96568.06;10454951;28;20257;-76
2023/06/14 04:30:26;;;;;;;7.13;5.00;;;;;;;6.71;100.00;96556.88;10455289;28;20199;-76
2023/06/14 04:35:28;;;;;;;6.30;4.73;;;;;;;6.79;100.00;96567.41;10454563;28;20219;-76
2023/06/14 04:40:29;;;;;;;6.67;4.70;;;;;;;7.11;100.00;96565.50;10454658;28;20204;-76
2023/06/14 04:45:31;;;;;;;8.27;5.07;;;;;;;7.17;100.00;96571.94;10456326;28;20188;-76
2023/06/14 04:50:32;;;;;;;6.60;4.53;;;;;;;7.33;100.00;96569.59;10453725;28;20196;-76
2023/06/14 04:55:33;;;;;;;7.90;4.93;;;;;;;7.57;100.00;96569.13;10454210;28;20228;-76
2023/06/14 05:00:35;;;;;;;9.03;4.80;;;;;;;7.92;100.00;96570.25;10453920;28;20191;-76
2023/06/14 05:05:37;;;;;;;9.00;5.10;;;;;;;8.28;100.00;96574.75;10453697;28;20224;-77
2023/06/14 05:10:37;;;;;;;5.97;4.87;;;;;;;8.54;100.00;96572.31;10454435;28;20196;-74
2023/06/14 05:15:38;;;;;;;8.77;4.90;;;;;;;8.73;100.00;96564.34;10436515;28;20230;-74
2023/06/14 05:20:38;;;;;;;8.93;5.17;;;;;;;9.15;100.00;96569.94;10453460;28;20644;-74
2023/06/14 05:25:38;;;;;;;8.97;5.20;;;;;;;9.42;100.00;96571.63;10454094;28;20560;-74
2023/06/14 05:30:39;;;;;;;5.87;4.63;;;;;;;9.63;100.00;96571.25;10454448;28;20555;-74
2023/06/14 05:35:40;;;;;;;5.20;4.30;;;;;;;9.91;100.00;96573.72;10453519;28;20310;-74
2023/06/14 05:40:40;;;;;;;5.47;4.97;;;;;;;10.44;100.00;96574.44;10453733;28;20318;-74
2023/06/14 05:45:40;;;;;;;6.20;4.60;;;;;;;10.85;100.00;96574.53;10452366;28;20394;-75
2023/06/14 05:50:41;;;;;;;9.52;4.63;;;;;;;11.10;100.00;96569.31;10459178;28;20191;-74
2023/06/14 05:55:41;;;;;;;8.13;5.27;;;;;;;11.26;100.00;96564.09;10477154;28;20265;-75
2023/06/14 06:00:41;;;;;;;10.50;5.50;;;;;;;11.52;100.00;96563.91;10473193;28;20191;-75
2023/06/14 06:05:42;;;;;;;8.10;5.45;;;;;;;11.89;100.00;96565.13;10494045;28;20285;-75
2023/06/14 06:10:43;;;;;;;7.43;5.28;;;;;;;12.56;100.00;96565.75;10493265;28;20183;-75
2023/06/14 06:15:43;;;;;;;8.57;5.00;;;;;;;13.13;100.00;96554.03;10493641;28;20215;-75
2023/06/14 06:20:44;;;;;;;5.70;4.70;;;;;;;13.25;100.00;96562.31;10493596;28;20195;-75
2023/06/14 06:25:44;;;;;;;5.85;3.97;;;;;;;13.50;98.02;96558.50;10493250;28;20277;-75
2023/06/14 06:30:45;;;;;;;6.18;5.13;;;;;;;13.86;94.36;96554.38;10493186;28;20199;-75
2023/06/14 06:35:45;;;;;;;7.95;4.65;;;;;;;14.85;87.94;96546.06;10492961;28;20603;-75
2023/06/14 06:40:45;;;;;;;6.72;4.00;;;;;;;15.42;83.22;96522.41;10493163;28;20215;-75
2023/06/14 06:45:47;;;;;;;6.53;3.78;;;;;;;16.31;78.67;96510.34;10492585;28;20188;-75
2023/06/14 06:50:47;;;;;;;8.63;4.45;;;;;;;17.16;75.26;96507.31;10492104;28;20191;-75
2023/06/14 06:55:48;;;;;;;6.15;4.57;;;;;;;18.16;69.12;96470.03;10490385;28;20218;-75
2023/06/14 07:00:48;;;;;;;6.15;4.50;;;;;;;17.79;68.18;96481.16;10488886;28;20562;-75
2023/06/14 07:05:49;;;;;;;5.95;4.30;;;;;;;17.27;67.34;96475.75;10489083;28;20192;-75
2023/06/14 07:10:49;;;;;;;6.85;3.78;;;;;;;18.56;63.74;96450.47;10490158;28;20556;-75
2023/06/14 07:15:53;;;;;;;4.38;3.67;;;;;;;19.76;58.46;96401.63;10489257;28;20695;-76
2023/06/14 07:20:54;;;;;;;5.45;3.58;;;;;;;18.37;60.79;96434.44;10494556;28;20268;-75
2023/06/14 07:25:54;;;;;;;5.72;3.05;;;;;;;19.37;58.82;96428.44;10497568;28;20230;-76
2023/06/14 07:30:54;;;;;;;7.55;3.67;;;;;;;17.61;58.14;96383.78;10498443;28;20283;-76
2023/06/14 07:35:55;;;;;;;7.53;3.05;;;;;;;17.77;61.45;96459.34;10498111;28;20302;-76
2023/06/14 07:40:55;;;;;;;4.00;3.30;;;;;;;17.91;59.67;96433.63;10498096;28;20325;-75
2023/06/14 07:45:56;;;;;;;6.45;3.30;;;;;;;18.39;60.40;96458.09;10497818;28;20220;-76
2023/06/14 07:50:57;;;;;;;5.20;3.67;;;;;;;18.61;59.27;96446.16;10496080;28;20195;-77
2023/06/14 07:55:57;;;;;;;3.75;3.10;;;;;;;19.36;56.28;96428.66;10496995;28;20602;-76
2023/06/14 08:00:58;;;;;;;4.13;3.47;;;;;;;18.46;55.73;96392.56;10481525;28;20214;-77
2023/06/14 08:05:58;;;;;;;3.90;3.50;;;;;;;19.52;55.75;96436.03;10454252;28;20256;-76
2023/06/14 08:10:58;;;;;;;5.20;3.40;;;;;;;19.59;54.53;96425.34;10454191;28;20684;-76
2023/06/14 08:16:01;;;;;;;5.82;3.40;;;;;;;19.35;56.05;96440.28;10454250;28;20227;-76
2023/06/14 08:21:02;;;;;;;6.35;3.03;;;;;;;20.34;52.92;96402.97;10468230;28;20313;-76
2023/06/14 08:26:04;;;;;;;3.22;2.85;;;;;;;21.05;50.42;96373.84;10496603;28;20266;-76
2023/06/14 08:31:04;;;;;;;3.88;2.58;;;;;;;20.65;50.78;96370.00;10494409;28;20557;-76
2023/06/14 08:36:05;;;;;;;4.10;3.15;;;;;;;20.93;50.62;96384.50;10495288;28;20219;-76
2023/06/14 08:41:06;;;;;;;4.25;3.13;;;;;;;19.46;54.28;96415.66;10494518;28;20234;-77
2023/06/14 08:46:08;;;;;;;7.10;3.28;;;;;;;19.72;55.43;96456.25;10494883;28;20190;-76
2023/06/14 08:51:09;;;;;;;4.65;3.42;;;;;;;20.22;54.59;96442.81;10489853;28;20187;-76
2023/06/14 08:56:13;;;;;;;4.85;3.25;;;;;;;20.40;50.41;96379.97;10487373;28;20264;-76
2023/06/14 09:01:14;;;;;;;4.80;3.30;;;;;;;20.54;52.48;96423.97;10493278;28;20683;-77
2023/06/14 09:06:15;;;;;;;4.75;4.25;;;;;;;21.82;49.43;96410.19;10494241;28;20190;-77
2023/06/14 09:11:18;;;;;;;4.28;3.40;;;;;;;20.91;52.26;96437.16;10493214;28;20198;-78
2023/06/14 09:16:19;;;;;;;5.82;3.22;;;;;;;20.59;52.33;96425.97;10494836;28;20223;-79
2023/06/14 09:21:20;;;;;;;6.60;3.53;;;;;;;20.26;52.43;96427.22;10489354;28;20541;-79
2023/06/14 09:26:22;;;;;;;4.28;3.33;;;;;;;21.20;51.00;96421.34;10494436;28;20587;-79
2023/06/14 09:31:23;;;;;;;4.00;2.30;;;;;;;20.04;51.57;96397.66;10493600;28;20187;-79
2023/06/14 09:36:25;;;;;;;6.13;2.75;;;;;;;20.73;49.54;96384.81;10494057;28;20212;-79
2023/06/14 09:41:33;;;;;;;2.88;2.20;;;;;;;21.89;48.14;96378.84;10491774;28;20206;-79
2023/06/14 09:46:34;;;;;;;2.63;2.40;;;;;;;21.27;46.27;96327.97;10493624;28;20240;-78
2023/06/14 09:51:36;;;;;;;5.40;2.58;;;;;;;22.26;47.24;96375.81;10486442;28;20195;-79
2023/06/14 09:56:42;;;;;;;4.15;2.40;;;;;;;22.73;44.48;96328.56;10491279;28;20305;-78
2023/06/14 10:01:43;;;;;;;5.28;2.33;;;;;;;20.88;50.31;96411.00;10491439;28;20239;-79
2023/06/14 10:06:45;;;;;;;6.95;2.70;;;;;;;21.75;50.11;96425.50;10469737;28;20222;-78
2023/06/14 10:11:53;;;;;;;5.38;2.45;;;;;;;22.92;45.15;96351.28;10458615;28;20207;-79
2023/06/14 10:17:04;;;;;;;3.97;2.40;;;;;;;23.47;44.15;96333.63;10473578;28;20560;-79
2023/06/14 10:22:12;;;;;;;3.13;2.58;;;;;;;24.32;39.73;96265.50;10453503;28;20283;-78
2023/06/14 10:27:16;;;;;;;3.35;2.42;;;;;;;23.62;42.46;96295.59;10489053;28;20536;-79
2023/06/14 10:38:40;;;;;;;3.47;2.72;;;;;;;25.05;37.95;96264.97;10450322;28;20291;-78
2023/06/14 10:43:40;;;;;;;4.30;3.40;;;;;;;25.22;37.94;96265.59;10452376;28;20191;-78
2023/06/14 10:48:44;;;;;;;3.45;3.13;;;;;;;24.02;40.23;96274.91;10488551;28;20599;-78
2023/06/14 10:53:45;;;;;;;4.85;2.78;;;;;;;23.09;41.69;96297.88;10487903;28;20219;-78
2023/06/14 10:58:45;;;;;;;3.35;3.00;;;;;;;24.34;42.26;96355.22;10468886;28;20612;-76
2023/06/14 11:03:55;;;;;;;5.82;3.30;;;;;;;22.03;45.05;96335.91;10490614;28;20231;-76
2023/06/14 11:09:19;;;;;;;3.60;2.78;;;;;;;22.64;46.23;96372.75;10474468;28;20744;-76
2023/06/14 11:14:19;;;;;;;3.25;2.88;;;;;;;22.56;46.78;96384.66;10475254;28;20280;-75
2023/06/14 11:19:21;;;;;;;3.28;2.97;;;;;;;22.41;46.47;96374.50;10490838;28;20317;-76
2023/06/14 11:24:21;;;;;;;4.13;2.63;;;;;;;21.29;47.01;96353.34;10488377;28;20728;-76
2023/06/14 11:29:22;;;;;;;4.07;3.05;;;;;;;21.11;49.74;96417.41;10482069;28;20247;-76
2023/06/14 11:34:22;;;;;;;2.45;2.20;;;;;;;21.93;46.91;96381.88;10490334;28;20223;-76
2023/06/14 11:39:27;;;;;;;3.70;2.80;;;;;;;20.13;51.98;96433.53;10480472;28;20230;-76
2023/06/14 11:44:27;;;;;;;2.83;2.53;;;;;;;19.85;51.40;96418.16;10489780;28;20183;-75
2023/06/14 11:49:28;;;;;;;3.22;2.20;;;;;;;21.91;48.53;96418.63;10489757;28;20659;-75
2023/06/14 11:54:28;;;;;;;2.90;2.50;;;;;;;21.73;46.83;96367.09;10489413;28;20302;-75
2023/06/14 11:59:31;;;;;;;2.50;2.30;;;;;;;24.13;44.47;96377.50;10488452;28;20533;-76
2023/06/14 12:04:31;;;;;;;3.50;2.40;;;;;;;22.96;45.94;96371.13;10487854;28;20285;-76
2023/06/14 12:09:32;;;;;;;2.58;2.38;;;;;;;22.36;47.77;96393.06;10496917;28;20199;-76
2023/06/14 12:14:32;;;;;;;3.40;2.45;;;;;;;20.82;50.84;96425.22;10496637;28;20750;-75
2023/06/14 12:19:33;;;;;;;2.55;2.35;;;;;;;19.72;54.26;96461.59;10484335;28;20187;-75
2023/06/14 12:24:34;;;;;;;6.20;2.90;;;;;;;19.50;56.06;96501.06;10462705;28;20196;-74
2023/06/14 12:29:34;;;;;;;3.55;2.75;;;;;;;18.60;59.70;96539.22;10455171;28;20192;-74
2023/06/14 12:34:35;;;;;;;4.13;3.28;;;;;;;18.35;59.52;96516.88;10465366;28;20300;-74
2023/06/14 12:39:38;;;;;;;4.90;3.20;;;;;;;18.30;60.46;96539.75;10496040;28;20207;-75
2023/06/14 12:44:40;;;;;;;6.55;3.17;;;;;;;19.42;57.07;96500.28;10495875;28;20187;-75
2023/06/14 12:49:41;;;;;;;3.33;2.90;;;;;;;21.61;50.68;96424.94;10495682;28;20708;-75
2023/06/14 12:54:41;;;;;;;5.13;2.95;;;;;;;22.35;48.92;96408.28;10495808;28;20218;-75
2023/06/14 12:59:41;;;;;;;5.50;2.42;;;;;;;21.92;49.82;96423.72;10495540;28;20211;-75
2023/06/14 13:04:42;;;;;;;3.05;2.50;;;;;;;21.27;50.00;96406.06;10494892;28;20341;-75
2023/06/14 13:09:43;;;;;;;5.28;3.28;;;;;;;20.78;52.21;96448.84;10492968;28;20199;-75
2023/06/14 13:14:43;;;;;;;5.28;3.35;;;;;;;20.75;53.63;96464.44;10475877;28;20258;-75
2023/06/14 13:19:44;;;;;;;4.57;3.40;;;;;;;24.06;48.75;96452.63;10469276;28;20266;-76
2023/06/14 13:24:44;;;;;;;3.88;3.40;;;;;;;24.26;47.05;96430.66;10489408;28;20194;-76
2023/06/14 13:29:45;;;;;;;5.00;3.10;;;;;;;23.06;47.56;96399.88;10492773;28;20195;-76
2023/06/14 13:34:45;;;;;;;4.28;3.80;;;;;;;23.44;46.08;96365.41;10493034;28;20221;-76
2023/06/14 13:39:45;;;;;;;2.40;2.20;;;;;;;25.55;42.87;96370.09;10492713;28;20710;-77
2023/06/14 13:44:51;;;;;;;2.80;2.10;;;;;;;25.73;41.11;96325.91;10491878;28;20275;-78
2023/06/14 13:49:51;;;;;;;2.70;2.50;;;;;;;25.76;40.85;96325.38;10493394;28;20611;-78
2023/06/14 13:54:52;;;;;;;2.63;1.93;;;;;;;23.95;43.82;96322.44;10491396;28;20307;-75
2023/06/14 14:00:03;;;;;;;2.45;2.25;;;;;;;23.29;45.41;96352.66;10488416;28;20445;-77
2023/06/14 14:05:15;;;;;;;2.72;2.53;;;;;;;23.24;47.04;96388.13;10492771;28;20312;-78
2023/06/14 14:10:16;;;;;;;2.55;2.30;;;;;;;21.48;49.61;96393.97;10489577;28;20614;-77
2023/06/14 14:15:16;;;;;;;5.47;3.00;;;;;;;20.80;52.35;96437.97;10541794;28;20191;-76
2023/06/14 14:20:17;;;;;;;3.85;3.00;;;;;;;20.90;53.79;96459.50;10494558;28;20219;-75
2023/06/14 14:25:17;;;;;;;4.43;3.00;;;;;;;21.70;52.31;96455.53;10491947;28;20574;-75
2023/06/14 14:30:20;;;;;;;3.10;2.47;;;;;;;24.87;45.73;96409.03;10491041;28;20248;-75
2023/06/14 14:35:20;;;;;;;4.32;2.80;;;;;;;27.15;39.86;96353.22;10491746;28;20441;-75
2023/06/14 14:40:21;;;;;;;6.68;2.55;;;;;;;26.47;39.23;96295.19;10490161;28;20221;-76
2023/06/14 14:45:21;;;;;;;4.72;2.47;;;;;;;24.42;44.32;96355.84;10491263;28;20215;-75
2023/06/14 14:50:21;;;;;;;4.57;2.72;;;;;;;21.69;50.18;96399.78;10491062;28;20662;-75
2023/06/14 14:55:22;;;;;;;4.60;3.20;;;;;;;21.01;51.22;96416.13;10488989;28;20647;-75
2023/06/14 15:00:22;;;;;;;7.88;3.15;;;;;;;20.55;54.14;96465.53;10490660;28;20651;-75
2023/06/14 15:05:22;;;;;;;5.45;2.97;;;;;;;23.87;46.80;96398.59;10490026;28;20630;-75
2023/06/14 15:10:23;;;;;;;3.73;2.83;;;;;;;26.90;41.40;96367.50;10490457;28;20278;-76
2023/06/14 15:21:57;;;;;;;4.35;3.00;;;;;;;28.75;35.76;96269.75;10484604;28;20213;-75
2023/06/14 15:26:57;;;;;;;2.60;2.40;;;;;;;28.57;37.37;96308.16;10490062;28;20203;-75
2023/06/14 15:31:58;;;;;;;5.47;2.87;;;;;;;27.88;36.99;96267.66;10488394;28;20199;-75
2023/06/14 15:36:58;;;;;;;2.95;2.50;;;;;;;22.49;45.33;96315.38;10488527;28;20572;-75
2023/06/14 15:41:59;;;;;;;3.67;2.60;;;;;;;20.55;49.94;96380.38;10493867;28;20202;-76
2023/06/14 15:46:59;;;;;;;5.50;3.17;;;;;;;20.37;50.46;96393.72;10496900;28;20195;-75
2023/06/14 15:52:00;;;;;;;8.88;3.00;;;;;;;20.68;50.48;96400.66;10497362;28;20627;-75
2023/06/14 15:57:01;;;;;;;4.85;3.22;;;;;;;20.62;50.99;96405.00;10497625;28;20234;-75
2023/06/14 16:02:01;;;;;;;12.93;3.10;;;;;;;21.07;51.36;96432.22;10496671;28;20638;-75
2023/06/14 16:07:02;;;;;;;6.78;3.08;;;;;;;20.99;51.97;96431.50;10497253;28;20191;-75
2023/06/14 16:12:02;;;;;;;3.50;3.10;;;;;;;20.52;52.61;96434.06;10496821;28;20248;-75
2023/06/14 16:17:02;;;;;;;5.05;3.38;;;;;;;19.74;53.76;96438.25;10496977;28;20207;-75
2023/06/14 16:22:04;;;;;;;4.38;3.50;;;;;;;19.78;54.27;96444.78;10496248;28;20380;-74
2023/06/14 16:27:06;;;;;;;7.68;3.78;;;;;;;19.43;56.12;96479.84;10496932;28;20199;-75
2023/06/14 16:32:07;;;;;;;4.35;3.50;;;;;;;19.60;55.97;96480.09;10497455;28;20191;-75
2023/06/14 16:37:08;;;;;;;4.68;3.22;;;;;;;19.52;49.96;96345.69;10496627;28;20211;-75
2023/06/14 16:42:08;;;;;;;5.47;3.25;;;;;;;19.30;51.01;96368.44;10495968;28;20214;-75
2023/06/14 16:47:10;;;;;;;4.03;3.63;;;;;;;19.31;50.03;96359.41;10496505;28;20221;-75
2023/06/14 16:52:10;;;;;;;3.67;3.30;;;;;;;19.69;50.42;96376.97;10491527;28;20297;-76
2023/06/14 16:57:11;;;;;;;3.22;2.92;;;;;;;19.74;50.79;96395.72;10469223;28;20799;-76
2023/06/14 17:02:11;;;;;;;5.20;3.55;;;;;;;19.77;46.95;96312.94;10462614;28;20647;-75
2023/06/14 17:07:12;;;;;;;5.15;2.85;;;;;;;19.56;48.46;96338.91;10455378;28;20196;-75
2023/06/14 17:12:12;;;;;;;3.80;3.40;;;;;;;19.47;51.29;96397.88;10455253;28;20218;-75
2023/06/14 17:17:13;;;;;;;4.85;3.40;;;;;;;19.88;48.93;96365.31;10459018;28;20188;-75
2023/06/14 17:22:13;;;;;;;4.13;3.50;;;;;;;19.81;48.94;96369.91;10493083;28;20258;-75
2023/06/14 17:27:15;;;;;;;3.67;3.38;;;;;;;19.95;48.01;96358.09;10506020;28;20206;-76
2023/06/14 17:32:15;;;;;;;4.80;3.90;;;;;;;19.34;50.81;96404.13;10489207;28;20200;-75
2023/06/14 17:37:16;;;;;;;5.45;3.88;;;;;;;18.92;50.65;96387.97;10481602;28;20944;-75
2023/06/14 17:42:16;;;;;;;4.43;3.70;;;;;;;18.76;51.77;96406.03;10483640;28;20219;-75
2023/06/14 17:47:17;;;;;;;5.00;4.40;;;;;;;18.97;48.63;96343.81;10481341;28;20273;-75
2023/06/14 17:52:17;;;;;;;6.63;4.35;;;;;;;18.62;50.06;96380.63;10448364;28;20195;-75
2023/06/14 17:57:17;;;;;;;5.15;4.65;;;;;;;18.26;51.30;96396.16;10448930;28;20553;-76
2023/06/14 18:02:18;;;;;;;5.57;5.00;;;;;;;18.39;50.65;96389.94;10447905;28;22225;-75
2023/06/14 18:07:19;;;;;;;5.30;4.80;;;;;;;18.23;52.67;96423.09;10449137;28;20218;-75
2023/06/14 18:12:19;;;;;;;6.80;5.60;;;;;;;18.00;52.56;96424.44;10451881;28;20242;-75
2023/06/14 18:17:20;;;;;;;5.47;4.97;;;;;;;17.78;52.73;96417.78;10451832;28;20287;-75
2023/06/14 18:22:21;;;;;;;7.45;5.53;;;;;;;17.36;53.74;96425.22;10451645;28;20676;-75
2023/06/14 18:27:21;;;;;;;6.57;5.68;;;;;;;17.30;55.49;96471.84;10451279;28;20260;-75
2023/06/14 18:32:21;;;;;;;6.57;4.80;;;;;;;17.08;56.94;96495.88;10451125;28;20284;-75
2023/06/14 18:37:22;;;;;;;6.25;5.65;;;;;;;16.64;59.80;96541.38;10450854;28;20211;-75
2023/06/14 18:42:23;;;;;;;6.50;5.80;;;;;;;15.75;64.21;96596.59;10451070;28;20215;-75
2023/06/14 18:47:23;;;;;;;7.10;6.40;;;;;;;14.34;67.13;96606.69;10450993;28;20211;-75
2023/06/14 18:52:24;;;;;;;10.95;7.03;;;;;;;13.50;72.05;96650.59;10450067;28;20190;-75
2023/06/14 18:57:25;;;;;;;10.32;7.10;;;;;;;13.19;74.35;96646.19;10449692;28;20192;-75
2023/06/14 19:02:25;;;;;;;10.15;7.95;;;;;;;13.34;75.32;96627.06;10449436;28;20250;-75
2023/06/14 19:07:25;;;;;;;14.50;12.55;;;;;;;13.04;76.60;96626.91;10450045;28;20630;-75
2023/06/14 19:12:26;;;;;;;11.35;7.70;;;;;;;12.96;77.76;96621.69;10468506;28;20952;-76
2023/06/14 19:17:26;;;;;;;11.32;7.32;;;;;;;12.69;80.05;96630.88;10473479;28;20549;-75
2023/06/14 19:22:27;;;;;;;9.20;6.70;;;;;;;12.37;81.87;96641.34;10471199;28;20610;-75
2023/06/14 19:27:27;;;;;;;14.65;7.57;;;;;;;12.18;84.85;96649.63;10473373;28;20210;-76
2023/06/14 19:32:27;;;;;;;10.85;7.95;;;;;;;11.94;85.54;96646.03;10475992;28;20191;-76
2023/06/14 19:37:28;;;;;;;10.48;7.20;;;;;;;11.85;86.65;96654.88;10470804;28;20203;-76
2023/06/14 19:42:28;;;;;;;9.45;7.85;;;;;;;11.75;87.96;96661.13;10491114;28;20314;-75
2023/06/14 19:47:29;;;;;;;12.45;8.80;;;;;;;11.53;90.51;96667.03;10489644;28;20236;-75
2023/06/14 19:52:29;;;;;;;11.55;8.02;;;;;;;11.28;92.96;96669.63;10490943;28;20287;-75
2023/06/14 19:57:29;;;;;;;11.25;8.05;;;;;;;11.14;95.28;96672.91;10491072;28;20274;-75
2023/06/14 20:02:30;;;;;;;13.07;9.27;;;;;;;11.14;94.48;96672.91;10484264;28;20282;-75
2023/06/14 20:07:31;;;;;;;10.05;7.80;;;;;;;11.10;95.38;96685.47;10448455;28;20199;-75
2023/06/14 20:12:32;;;;;;;11.00;7.95;;;;;;;11.06;94.55;96692.06;10448717;28;20192;-75
2023/06/14 20:17:32;;;;;;;10.65;8.10;;;;;;;10.98;94.57;96692.84;10448638;28;20207;-75
2023/06/14 20:22:37;;;;;;;10.23;8.53;;;;;;;10.89;94.88;96686.75;10448424;28;20227;-75
2023/06/14 20:27:37;;;;;;;14.80;8.77;;;;;;;10.79;95.40;96701.78;10451497;28;20195;-75
2023/06/14 20:32:38;;;;;;;8.73;7.75;;;;;;;10.68;96.43;96704.69;10455162;28;20201;-75
2023/06/14 20:37:38;;;;;;;11.20;7.90;;;;;;;10.49;98.40;96709.19;10455488;28;20211;-75
2023/06/14 20:42:38;;;;;;;10.13;8.20;;;;;;;10.40;99.34;96698.81;10455047;28;20307;-75
2023/06/14 20:47:39;;;;;;;9.17;8.00;;;;;;;10.25;100.00;96704.59;10455071;28;20192;-75
2023/06/14 20:52:40;;;;;;;12.07;7.13;;;;;;;10.13;100.00;96706.66;10454696;28;20228;-75
2023/06/14 20:57:41;;;;;;;11.07;7.87;;;;;;;10.07;100.00;96714.31;10453632;28;20599;-75
2023/06/14 21:02:41;;;;;;;9.70;8.40;;;;;;;9.98;100.00;96716.88;10453912;28;20246;-75
2023/06/14 21:07:42;;;;;;;10.93;8.00;;;;;;;9.89;100.00;96714.31;10454008;28;20196;-75
2023/06/14 21:12:42;;;;;;;10.53;8.03;;;;;;;9.86;100.00;96717.25;10454023;28;20208;-75
2023/06/14 21:17:43;;;;;;;13.00;8.60;;;;;;;9.74;100.00;96712.28;10454187;28;20184;-75
2023/06/14 21:22:43;;;;;;;9.77;7.57;;;;;;;9.74;100.00;96712.28;10453729;28;20237;-75
2023/06/14 21:27:43;;;;;;;9.97;7.83;;;;;;;9.67;100.00;96707.78;10454469;28;20180;-75
2023/06/14 21:32:44;;;;;;;10.07;8.10;;;;;;;9.56;100.00;96717.50;10453684;28;20215;-75
2023/06/14 21:37:44;;;;;;;10.50;7.63;;;;;;;9.52;100.00;96713.53;10454161;28;20215;-75
2023/06/14 21:42:45;;;;;;;11.03;8.17;;;;;;;9.43;100.00;96719.66;10453582;28;20275;-75
2023/06/14 21:47:45;;;;;;;10.93;8.30;;;;;;;9.38;100.00;96724.53;10453864;28;20198;-75
2023/06/14 21:52:46;;;;;;;13.53;8.50;;;;;;;9.28;100.00;96722.81;10453740;28;20231;-75
2023/06/14 21:57:46;;;;;;;11.00;8.20;;;;;;;9.15;100.00;96721.53;10453192;28;20295;-76
2023/06/14 22:02:46;;;;;;;12.67;8.43;;;;;;;9.15;100.00;96719.72;10451727;28;20228;-75
2023/06/14 22:07:48;;;;;;;12.67;8.30;;;;;;;9.00;100.00;96715.97;10451576;28;20188;-75
2023/06/14 22:12:49;;;;;;;10.33;9.00;;;;;;;8.97;100.00;96711.03;10452445;28;20580;-75
2023/06/14 22:17:51;;;;;;;9.43;7.50;;;;;;;8.92;100.00;96722.72;10452512;28;20188;-75
2023/06/14 22:22:51;;;;;;;10.43;8.50;;;;;;;8.82;100.00;96715.91;10451937;28;20957;-75
2023/06/14 22:27:52;;;;;;;12.87;8.00;;;;;;;8.81;100.00;96725.53;10452378;28;20241;-75
2023/06/14 22:32:53;;;;;;;10.00;8.20;;;;;;;8.66;100.00;96719.16;10417226;28;20298;-75
2023/06/14 22:37:53;;;;;;;11.13;8.43;;;;;;;8.68;100.00;96714.59;10451819;28;20214;-75
2023/06/14 22:42:57;;;;;;;10.57;8.10;;;;;;;8.61;100.00;96713.56;10451310;28;20257;-75
2023/06/14 22:47:58;;;;;;;8.67;7.03;;;;;;;8.60;100.00;96711.91;10451685;28;20192;-75
2023/06/14 22:53:02;;;;;;;10.20;7.50;;;;;;;8.49;100.00;96721.56;10451023;28;20338;-75
2023/06/14 22:58:03;;;;;;;11.13;7.53;;;;;;;8.48;100.00;96717.28;10450884;28;20191;-75
2023/06/14 23:03:03;;;;;;;10.47;7.30;;;;;;;8.40;100.00;96722.38;10450737;28;20233;-75
2023/06/14 23:08:03;;;;;;;9.63;7.57;;;;;;;8.31;100.00;96734.50;10451148;28;20295;-75
2023/06/14 23:13:04;;;;;;;10.60;7.60;;;;;;;8.28;100.00;96729.56;10450231;28;20207;-75
2023/06/14 23:18:05;;;;;;;10.00;8.10;;;;;;;8.32;100.00;96724.91;10451189;28;20219;-75
2023/06/14 23:23:05;;;;;;;10.60;7.37;;;;;;;8.24;100.00;96729.97;10449832;28;20274;-75
2023/06/14 23:28:09;;;;;;;8.77;6.83;;;;;;;8.26;100.00;96728.06;10450529;28;20263;-75
2023/06/14 23:33:09;;;;;;;10.57;6.60;;;;;;;8.31;100.00;96726.66;10450001;28;20234;-75